sensor_id;sensor_type;location;lat;lon;timestamp;temperature;humidity
45115;DHT22;30877;43.706;10.780;2023-05-07T00:00:07;18.60;96.70
45115;DHT22;30877;43.706;10.780;2023-05-07T00:02:36;18.50;96.70
45115;DHT22;30877;43.706;10.780;2023-05-07T00:05:06;18.40;96.70
45115;DHT22;30877;43.706;10.780;2023-05-07T00:07:36;18.30;96.70
45115;DHT22;30877;43.706;10.780;2023-05-07T00:10:05;18.40;96.70
45115;DHT22;30877;43.706;10.780;2023-05-07T00:29:22;18.30;96.70
45115;DHT22;30877;43.706;10.780;2023-05-07T00:31:51;18.40;96.70
45115;DHT22;30877;43.706;10.780;2023-05-07T00:34:20;18.40;96.70
45115;DHT22;30877;43.706;10.780;2023-05-07T00:36:48;18.30;96.70
45115;DHT22;30877;43.706;10.780;2023-05-07T00:39:40;18.20;96.70
45115;DHT22;30877;43.706;10.780;2023-05-07T00:42:09;18.10;96.70
45115;DHT22;30877;43.706;10.780;2023-05-07T00:44:40;18.00;96.70
45115;DHT22;30877;43.706;10.780;2023-05-07T00:51:16;17.90;96.70
45115;DHT22;30877;43.706;10.780;2023-05-07T00:53:45;18.00;96.70
45115;DHT22;30877;43.706;10.780;2023-05-07T00:56:16;17.90;96.70
45115;DHT22;30877;43.706;10.780;2023-05-07T00:58:45;17.90;96.70
45115;DHT22;30877;43.706;10.780;2023-05-07T01:01:15;17.90;96.70
45115;DHT22;30877;43.706;10.780;2023-05-07T01:03:46;17.90;96.70
45115;DHT22;30877;43.706;10.780;2023-05-07T01:10:29;17.90;96.70
45115;DHT22;30877;43.706;10.780;2023-05-07T01:12:59;17.80;96.70
45115;DHT22;30877;43.706;10.780;2023-05-07T01:15:28;17.80;96.70
45115;DHT22;30877;43.706;10.780;2023-05-07T01:17:59;17.80;96.70
45115;DHT22;30877;43.706;10.780;2023-05-07T01:20:32;17.70;96.70
45115;DHT22;30877;43.706;10.780;2023-05-07T01:27:42;17.70;96.70
45115;DHT22;30877;43.706;10.780;2023-05-07T01:30:11;17.80;96.70
45115;DHT22;30877;43.706;10.780;2023-05-07T01:32:43;17.60;96.70
45115;DHT22;30877;43.706;10.780;2023-05-07T01:35:18;17.60;96.70
45115;DHT22;30877;43.706;10.780;2023-05-07T01:37:47;17.60;96.70
45115;DHT22;30877;43.706;10.780;2023-05-07T01:40:16;17.50;96.70
45115;DHT22;30877;43.706;10.780;2023-05-07T02:37:33;16.90;96.70
45115;DHT22;30877;43.706;10.780;2023-05-07T02:40:02;16.90;96.70
45115;DHT22;30877;43.706;10.780;2023-05-07T02:42:31;16.80;96.70
45115;DHT22;30877;43.706;10.780;2023-05-07T02:44:59;16.80;96.70
45115;DHT22;30877;43.706;10.780;2023-05-07T02:47:30;16.80;96.70
45115;DHT22;30877;43.706;10.780;2023-05-07T02:50:01;16.70;96.70
45115;DHT22;30877;43.706;10.780;2023-05-07T03:51:30;16.10;96.70
45115;DHT22;30877;43.706;10.780;2023-05-07T03:54:00;16.20;96.70
45115;DHT22;30877;43.706;10.780;2023-05-07T03:56:43;16.20;96.70
45115;DHT22;30877;43.706;10.780;2023-05-07T03:59:21;16.40;96.70
45115;DHT22;30877;43.706;10.780;2023-05-07T04:01:58;16.30;96.70
45115;DHT22;30877;43.706;10.780;2023-05-07T04:04:31;16.30;96.70
45115;DHT22;30877;43.706;10.780;2023-05-07T04:07:03;16.30;96.70
45115;DHT22;30877;43.706;10.780;2023-05-07T05:04:24;16.40;96.70
45115;DHT22;30877;43.706;10.780;2023-05-07T05:06:54;16.40;96.70
45115;DHT22;30877;43.706;10.780;2023-05-07T05:09:23;16.50;96.70
45115;DHT22;30877;43.706;10.780;2023-05-07T05:11:52;16.40;96.70
45115;DHT22;30877;43.706;10.780;2023-05-07T05:14:20;16.20;96.70
45115;DHT22;30877;43.706;10.780;2023-05-07T05:16:50;16.30;96.70
45115;DHT22;30877;43.706;10.780;2023-05-07T05:19:21;16.10;96.70
45115;DHT22;30877;43.706;10.780;2023-05-07T05:21:52;16.20;96.70
45115;DHT22;30877;43.706;10.780;2023-05-07T05:24:21;16.40;96.70
45115;DHT22;30877;43.706;10.780;2023-05-07T05:26:51;16.50;96.70
45115;DHT22;30877;43.706;10.780;2023-05-07T05:29:23;16.60;96.70
45115;DHT22;30877;43.706;10.780;2023-05-07T05:31:51;16.50;96.70
45115;DHT22;30877;43.706;10.780;2023-05-07T05:34:21;16.50;96.70
45115;DHT22;30877;43.706;10.780;2023-05-07T05:36:52;16.40;96.70
45115;DHT22;30877;43.706;10.780;2023-05-07T05:39:21;16.50;96.70
45115;DHT22;30877;43.706;10.780;2023-05-07T05:41:51;16.50;96.70
45115;DHT22;30877;43.706;10.780;2023-05-07T05:44:20;16.50;96.70
45115;DHT22;30877;43.706;10.780;2023-05-07T05:46:49;16.50;96.70
45115;DHT22;30877;43.706;10.780;2023-05-07T05:49:18;16.60;96.70
45115;DHT22;30877;43.706;10.780;2023-05-07T05:51:48;16.70;96.70
45115;DHT22;30877;43.706;10.780;2023-05-07T05:54:20;16.70;96.70
45115;DHT22;30877;43.706;10.780;2023-05-07T05:56:49;16.90;96.70
45115;DHT22;30877;43.706;10.780;2023-05-07T05:59:18;17.00;96.70
45115;DHT22;30877;43.706;10.780;2023-05-07T06:01:48;17.10;96.70
45115;DHT22;30877;43.706;10.780;2023-05-07T06:04:16;17.10;96.70
45115;DHT22;30877;43.706;10.780;2023-05-07T06:06:45;17.10;96.70
45115;DHT22;30877;43.706;10.780;2023-05-07T06:09:14;17.20;96.70
45115;DHT22;30877;43.706;10.780;2023-05-07T06:11:46;17.30;96.70
45115;DHT22;30877;43.706;10.780;2023-05-07T06:14:15;17.30;96.70
45115;DHT22;30877;43.706;10.780;2023-05-07T06:16:44;17.30;96.70
45115;DHT22;30877;43.706;10.780;2023-05-07T06:19:12;17.40;96.70
45115;DHT22;30877;43.706;10.780;2023-05-07T06:21:42;17.30;96.70
45115;DHT22;30877;43.706;10.780;2023-05-07T06:24:11;17.40;96.70
45115;DHT22;30877;43.706;10.780;2023-05-07T06:26:40;17.50;96.70
45115;DHT22;30877;43.706;10.780;2023-05-07T06:29:10;17.50;96.70
45115;DHT22;30877;43.706;10.780;2023-05-07T06:31:41;17.60;96.70
45115;DHT22;30877;43.706;10.780;2023-05-07T06:34:11;17.60;96.70
45115;DHT22;30877;43.706;10.780;2023-05-07T06:36:42;17.50;96.70
45115;DHT22;30877;43.706;10.780;2023-05-07T06:39:24;17.50;96.70
45115;DHT22;30877;43.706;10.780;2023-05-07T06:41:53;17.50;96.70
45115;DHT22;30877;43.706;10.780;2023-05-07T06:44:32;17.60;96.70
45115;DHT22;30877;43.706;10.780;2023-05-07T06:47:12;17.60;96.70
45115;DHT22;30877;43.706;10.780;2023-05-07T06:49:46;17.70;96.70
45115;DHT22;30877;43.706;10.780;2023-05-07T06:52:17;17.90;96.70
45115;DHT22;30877;43.706;10.780;2023-05-07T06:54:48;17.90;96.70
45115;DHT22;30877;43.706;10.780;2023-05-07T06:57:20;18.00;96.70
45115;DHT22;30877;43.706;10.780;2023-05-07T06:59:50;18.00;96.70
45115;DHT22;30877;43.706;10.780;2023-05-07T07:02:20;18.00;96.70
45115;DHT22;30877;43.706;10.780;2023-05-07T07:04:49;18.10;96.70
45115;DHT22;30877;43.706;10.780;2023-05-07T07:07:19;18.20;96.70
45115;DHT22;30877;43.706;10.780;2023-05-07T07:09:50;18.30;96.70
45115;DHT22;30877;43.706;10.780;2023-05-07T07:12:19;18.40;96.70
45115;DHT22;30877;43.706;10.780;2023-05-07T07:14:49;18.40;96.70
45115;DHT22;30877;43.706;10.780;2023-05-07T07:17:18;18.60;96.70
45115;DHT22;30877;43.706;10.780;2023-05-07T07:19:47;18.60;96.70
45115;DHT22;30877;43.706;10.780;2023-05-07T07:22:16;18.60;96.70
45115;DHT22;30877;43.706;10.780;2023-05-07T07:24:45;18.70;96.70
45115;DHT22;30877;43.706;10.780;2023-05-07T07:27:16;18.70;96.70
45115;DHT22;30877;43.706;10.780;2023-05-07T07:29:44;18.70;96.70
45115;DHT22;30877;43.706;10.780;2023-05-07T07:32:15;18.80;96.70
45115;DHT22;30877;43.706;10.780;2023-05-07T07:34:44;18.90;96.70
45115;DHT22;30877;43.706;10.780;2023-05-07T07:37:13;18.90;96.70
45115;DHT22;30877;43.706;10.780;2023-05-07T07:39:42;18.90;96.70
45115;DHT22;30877;43.706;10.780;2023-05-07T07:42:11;19.00;96.70
45115;DHT22;30877;43.706;10.780;2023-05-07T07:44:40;19.10;96.70
45115;DHT22;30877;43.706;10.780;2023-05-07T07:47:10;19.20;96.70
45115;DHT22;30877;43.706;10.780;2023-05-07T07:49:41;19.20;96.70
45115;DHT22;30877;43.706;10.780;2023-05-07T07:52:11;19.30;96.70
45115;DHT22;30877;43.706;10.780;2023-05-07T07:54:40;19.50;96.70
45115;DHT22;30877;43.706;10.780;2023-05-07T07:57:09;19.50;96.70
45115;DHT22;30877;43.706;10.780;2023-05-07T07:59:38;19.60;96.70
45115;DHT22;30877;43.706;10.780;2023-05-07T08:02:09;19.60;96.70
45115;DHT22;30877;43.706;10.780;2023-05-07T08:04:38;19.60;96.70
45115;DHT22;30877;43.706;10.780;2023-05-07T08:07:10;19.70;96.70
45115;DHT22;30877;43.706;10.780;2023-05-07T08:09:42;19.70;96.70
45115;DHT22;30877;43.706;10.780;2023-05-07T08:12:11;19.70;96.70
45115;DHT22;30877;43.706;10.780;2023-05-07T08:14:39;19.90;96.70
45115;DHT22;30877;43.706;10.780;2023-05-07T08:17:09;19.90;96.70
45115;DHT22;30877;43.706;10.780;2023-05-07T08:19:38;20.00;96.70
45115;DHT22;30877;43.706;10.780;2023-05-07T08:22:12;20.20;96.70
45115;DHT22;30877;43.706;10.780;2023-05-07T08:24:41;20.20;96.70
45115;DHT22;30877;43.706;10.780;2023-05-07T08:27:11;20.30;96.70
45115;DHT22;30877;43.706;10.780;2023-05-07T08:29:42;20.40;96.70
45115;DHT22;30877;43.706;10.780;2023-05-07T08:32:10;20.30;96.70
45115;DHT22;30877;43.706;10.780;2023-05-07T08:34:39;20.50;96.70
45115;DHT22;30877;43.706;10.780;2023-05-07T08:37:08;20.50;96.70
45115;DHT22;30877;43.706;10.780;2023-05-07T08:39:39;20.50;96.70
45115;DHT22;30877;43.706;10.780;2023-05-07T08:42:17;20.60;96.70
45115;DHT22;30877;43.706;10.780;2023-05-07T08:44:46;20.70;96.70
45115;DHT22;30877;43.706;10.780;2023-05-07T08:47:18;20.90;96.70
45115;DHT22;30877;43.706;10.780;2023-05-07T08:49:51;21.00;96.70
45115;DHT22;30877;43.706;10.780;2023-05-07T08:52:23;20.90;96.70
45115;DHT22;30877;43.706;10.780;2023-05-07T08:54:53;20.90;96.70
45115;DHT22;30877;43.706;10.780;2023-05-07T08:57:24;21.10;96.70
45115;DHT22;30877;43.706;10.780;2023-05-07T08:59:54;21.30;96.70
45115;DHT22;30877;43.706;10.780;2023-05-07T09:02:23;21.40;96.70
45115;DHT22;30877;43.706;10.780;2023-05-07T09:04:52;21.50;96.70
45115;DHT22;30877;43.706;10.780;2023-05-07T09:07:21;21.50;96.70
45115;DHT22;30877;43.706;10.780;2023-05-07T09:09:50;21.50;96.70
45115;DHT22;30877;43.706;10.780;2023-05-07T09:12:22;21.60;96.70
45115;DHT22;30877;43.706;10.780;2023-05-07T09:14:51;21.70;96.70
45115;DHT22;30877;43.706;10.780;2023-05-07T09:17:19;21.70;96.70
45115;DHT22;30877;43.706;10.780;2023-05-07T09:19:48;21.80;96.70
45115;DHT22;30877;43.706;10.780;2023-05-07T09:22:17;21.90;96.70
45115;DHT22;30877;43.706;10.780;2023-05-07T09:25:06;21.90;96.70
45115;DHT22;30877;43.706;10.780;2023-05-07T09:27:38;22.00;96.70
45115;DHT22;30877;43.706;10.780;2023-05-07T09:30:07;22.10;96.70
45115;DHT22;30877;43.706;10.780;2023-05-07T09:32:37;22.20;96.70
45115;DHT22;30877;43.706;10.780;2023-05-07T09:35:15;22.20;96.70
45115;DHT22;30877;43.706;10.780;2023-05-07T09:37:49;22.30;96.70
45115;DHT22;30877;43.706;10.780;2023-05-07T09:40:21;22.40;96.70
45115;DHT22;30877;43.706;10.780;2023-05-07T09:42:54;22.50;96.70
45115;DHT22;30877;43.706;10.780;2023-05-07T09:45:25;22.50;96.70
45115;DHT22;30877;43.706;10.780;2023-05-07T09:47:56;22.60;96.70
45115;DHT22;30877;43.706;10.780;2023-05-07T09:50:29;22.60;96.70
45115;DHT22;30877;43.706;10.780;2023-05-07T09:52:58;22.70;96.70
45115;DHT22;30877;43.706;10.780;2023-05-07T09:55:27;22.80;96.70
45115;DHT22;30877;43.706;10.780;2023-05-07T09:57:58;23.00;96.70
45115;DHT22;30877;43.706;10.780;2023-05-07T10:00:28;23.00;96.70
45115;DHT22;30877;43.706;10.780;2023-05-07T10:03:06;23.10;96.70
45115;DHT22;30877;43.706;10.780;2023-05-07T10:06:09;23.10;96.70
45115;DHT22;30877;43.706;10.780;2023-05-07T10:08:38;23.40;96.70
45115;DHT22;30877;43.706;10.780;2023-05-07T10:11:09;23.40;96.70
45115;DHT22;30877;43.706;10.780;2023-05-07T10:13:40;23.50;96.70
45115;DHT22;30877;43.706;10.780;2023-05-07T10:16:10;23.40;96.70
45115;DHT22;30877;43.706;10.780;2023-05-07T10:18:43;23.50;96.70
45115;DHT22;30877;43.706;10.780;2023-05-07T10:21:18;23.50;96.70
45115;DHT22;30877;43.706;10.780;2023-05-07T10:23:51;23.70;96.70
45115;DHT22;30877;43.706;10.780;2023-05-07T10:26:22;23.80;96.70
45115;DHT22;30877;43.706;10.780;2023-05-07T10:29:01;23.90;96.70
45115;DHT22;30877;43.706;10.780;2023-05-07T10:31:48;23.80;96.70
45115;DHT22;30877;43.706;10.780;2023-05-07T10:34:21;23.90;96.70
45115;DHT22;30877;43.706;10.780;2023-05-07T10:36:52;24.20;96.70
45115;DHT22;30877;43.706;10.780;2023-05-07T10:39:22;24.50;96.70
45115;DHT22;30877;43.706;10.780;2023-05-07T10:41:51;24.50;96.70
45115;DHT22;30877;43.706;10.780;2023-05-07T10:44:31;24.50;96.70
45115;DHT22;30877;43.706;10.780;2023-05-07T10:47:07;24.60;96.70
45115;DHT22;30877;43.706;10.780;2023-05-07T10:52:41;25.00;96.70
45115;DHT22;30877;43.706;10.780;2023-05-07T10:55:21;25.00;96.70
45115;DHT22;30877;43.706;10.780;2023-05-07T10:58:26;25.10;96.70
45115;DHT22;30877;43.706;10.780;2023-05-07T11:01:49;25.10;96.70
45115;DHT22;30877;43.706;10.780;2023-05-07T11:04:20;25.20;96.70
45115;DHT22;30877;43.706;10.780;2023-05-07T11:07:26;25.20;96.70
45115;DHT22;30877;43.706;10.780;2023-05-07T11:10:01;25.50;96.70
45115;DHT22;30877;43.706;10.780;2023-05-07T11:12:55;25.60;96.70
45115;DHT22;30877;43.706;10.780;2023-05-07T11:15:39;25.40;96.70
45115;DHT22;30877;43.706;10.780;2023-05-07T11:18:19;25.40;96.70
45115;DHT22;30877;43.706;10.780;2023-05-07T11:20:57;25.40;96.70
45115;DHT22;30877;43.706;10.780;2023-05-07T11:23:59;25.40;96.70
45115;DHT22;30877;43.706;10.780;2023-05-07T11:26:46;25.50;96.70
45115;DHT22;30877;43.706;10.780;2023-05-07T11:29:17;25.60;96.70
45115;DHT22;30877;43.706;10.780;2023-05-07T11:31:51;25.60;96.70
45115;DHT22;30877;43.706;10.780;2023-05-07T11:34:25;25.70;96.70
45115;DHT22;30877;43.706;10.780;2023-05-07T11:36:58;26.00;96.70
45115;DHT22;30877;43.706;10.780;2023-05-07T11:39:46;26.20;96.70
45115;DHT22;30877;43.706;10.780;2023-05-07T11:42:33;26.00;96.70
45115;DHT22;30877;43.706;10.780;2023-05-07T11:45:02;26.10;96.70
45115;DHT22;30877;43.706;10.780;2023-05-07T11:47:31;26.10;96.70
45115;DHT22;30877;43.706;10.780;2023-05-07T11:50:06;26.10;96.70
45115;DHT22;30877;43.706;10.780;2023-05-07T11:52:35;26.20;96.70
45115;DHT22;30877;43.706;10.780;2023-05-07T11:55:04;26.20;96.70
45115;DHT22;30877;43.706;10.780;2023-05-07T11:57:33;26.30;96.70
45115;DHT22;30877;43.706;10.780;2023-05-07T12:00:03;26.40;96.70
45115;DHT22;30877;43.706;10.780;2023-05-07T12:02:38;26.40;96.70
45115;DHT22;30877;43.706;10.780;2023-05-07T12:05:08;26.50;96.70
45115;DHT22;30877;43.706;10.780;2023-05-07T12:07:38;26.50;96.70
45115;DHT22;30877;43.706;10.780;2023-05-07T12:10:07;26.50;96.70
45115;DHT22;30877;43.706;10.780;2023-05-07T12:12:39;26.60;96.70
45115;DHT22;30877;43.706;10.780;2023-05-07T12:15:09;26.50;96.70
45115;DHT22;30877;43.706;10.780;2023-05-07T12:17:38;26.70;96.70
45115;DHT22;30877;43.706;10.780;2023-05-07T12:20:10;26.80;96.70
45115;DHT22;30877;43.706;10.780;2023-05-07T12:22:38;26.80;96.70
45115;DHT22;30877;43.706;10.780;2023-05-07T12:25:07;26.60;96.70
45115;DHT22;30877;43.706;10.780;2023-05-07T12:27:37;26.80;96.70
45115;DHT22;30877;43.706;10.780;2023-05-07T12:30:10;26.80;96.70
45115;DHT22;30877;43.706;10.780;2023-05-07T12:32:39;26.70;96.70
45115;DHT22;30877;43.706;10.780;2023-05-07T12:35:09;26.80;96.70
45115;DHT22;30877;43.706;10.780;2023-05-07T12:37:38;26.90;96.70
45115;DHT22;30877;43.706;10.780;2023-05-07T12:40:08;27.10;96.70
45115;DHT22;30877;43.706;10.780;2023-05-07T12:42:39;27.00;96.70
45115;DHT22;30877;43.706;10.780;2023-05-07T12:45:09;26.90;96.70
45115;DHT22;30877;43.706;10.780;2023-05-07T12:47:38;26.90;96.70
45115;DHT22;30877;43.706;10.780;2023-05-07T12:50:09;26.80;96.70
45115;DHT22;30877;43.706;10.780;2023-05-07T12:52:37;26.90;96.70
45115;DHT22;30877;43.706;10.780;2023-05-07T12:55:06;26.90;96.70
45115;DHT22;30877;43.706;10.780;2023-05-07T12:57:38;27.00;96.70
45115;DHT22;30877;43.706;10.780;2023-05-07T13:00:09;27.00;96.70
45115;DHT22;30877;43.706;10.780;2023-05-07T13:02:38;26.80;96.70
45115;DHT22;30877;43.706;10.780;2023-05-07T13:05:09;26.80;96.70
45115;DHT22;30877;43.706;10.780;2023-05-07T13:07:37;26.70;96.70
45115;DHT22;30877;43.706;10.780;2023-05-07T13:10:06;26.90;96.70
45115;DHT22;30877;43.706;10.780;2023-05-07T13:12:35;26.90;96.70
45115;DHT22;30877;43.706;10.780;2023-05-07T13:15:04;26.90;96.70
45115;DHT22;30877;43.706;10.780;2023-05-07T13:17:32;26.90;96.70
45115;DHT22;30877;43.706;10.780;2023-05-07T13:20:00;27.20;96.70
45115;DHT22;30877;43.706;10.780;2023-05-07T13:22:30;27.40;96.70
45115;DHT22;30877;43.706;10.780;2023-05-07T13:24:58;27.60;96.70
45115;DHT22;30877;43.706;10.780;2023-05-07T13:27:26;27.80;96.70
45115;DHT22;30877;43.706;10.780;2023-05-07T13:29:54;27.90;96.70
45115;DHT22;30877;43.706;10.780;2023-05-07T13:32:22;28.20;96.70
45115;DHT22;30877;43.706;10.780;2023-05-07T13:34:50;28.20;96.70
45115;DHT22;30877;43.706;10.780;2023-05-07T13:37:18;28.20;96.70
45115;DHT22;30877;43.706;10.780;2023-05-07T13:39:48;28.20;96.70
45115;DHT22;30877;43.706;10.780;2023-05-07T13:42:16;28.40;96.70
45115;DHT22;30877;43.706;10.780;2023-05-07T13:44:44;28.60;96.70
45115;DHT22;30877;43.706;10.780;2023-05-07T13:47:12;28.70;96.70
45115;DHT22;30877;43.706;10.780;2023-05-07T13:49:40;28.70;96.70
45115;DHT22;30877;43.706;10.780;2023-05-07T13:52:08;28.90;96.70
45115;DHT22;30877;43.706;10.780;2023-05-07T13:54:36;29.20;96.70
45115;DHT22;30877;43.706;10.780;2023-05-07T13:57:05;29.30;96.70
45115;DHT22;30877;43.706;10.780;2023-05-07T13:59:34;29.20;96.70
45115;DHT22;30877;43.706;10.780;2023-05-07T14:02:02;29.10;96.70
45115;DHT22;30877;43.706;10.780;2023-05-07T14:04:30;28.90;96.70
45115;DHT22;30877;43.706;10.780;2023-05-07T14:06:58;28.80;96.70
45115;DHT22;30877;43.706;10.780;2023-05-07T14:09:26;29.30;96.70
45115;DHT22;30877;43.706;10.780;2023-05-07T14:11:54;29.30;96.70
45115;DHT22;30877;43.706;10.780;2023-05-07T14:14:23;29.70;96.70
45115;DHT22;30877;43.706;10.780;2023-05-07T14:16:51;29.30;96.70
45115;DHT22;30877;43.706;10.780;2023-05-07T14:19:20;29.20;96.70
45115;DHT22;30877;43.706;10.780;2023-05-07T14:21:51;28.50;96.70
45115;DHT22;30877;43.706;10.780;2023-05-07T14:24:19;28.40;96.70
45115;DHT22;30877;43.706;10.780;2023-05-07T14:27:04;28.30;96.70
45115;DHT22;30877;43.706;10.780;2023-05-07T14:29:33;28.60;96.70
45115;DHT22;30877;43.706;10.780;2023-05-07T14:32:03;28.50;96.70
45115;DHT22;30877;43.706;10.780;2023-05-07T14:34:31;28.30;96.70
45115;DHT22;30877;43.706;10.780;2023-05-07T14:37:00;28.00;96.70
45115;DHT22;30877;43.706;10.780;2023-05-07T14:39:28;27.90;96.70
45115;DHT22;30877;43.706;10.780;2023-05-07T14:41:57;27.60;96.70
45115;DHT22;30877;43.706;10.780;2023-05-07T14:44:25;27.30;96.70
45115;DHT22;30877;43.706;10.780;2023-05-07T14:46:54;27.20;96.70
45115;DHT22;30877;43.706;10.780;2023-05-07T14:49:22;26.90;96.70
45115;DHT22;30877;43.706;10.780;2023-05-07T14:51:51;26.50;96.70
45115;DHT22;30877;43.706;10.780;2023-05-07T14:54:19;26.20;96.70
45115;DHT22;30877;43.706;10.780;2023-05-07T14:56:47;26.00;96.70
45115;DHT22;30877;43.706;10.780;2023-05-07T14:59:15;25.90;96.70
45115;DHT22;30877;43.706;10.780;2023-05-07T15:01:45;25.70;96.70
45115;DHT22;30877;43.706;10.780;2023-05-07T15:04:15;25.70;96.70
45115;DHT22;30877;43.706;10.780;2023-05-07T15:06:43;25.70;96.70
45115;DHT22;30877;43.706;10.780;2023-05-07T15:09:11;25.50;96.70
45115;DHT22;30877;43.706;10.780;2023-05-07T15:11:40;25.60;96.70
45115;DHT22;30877;43.706;10.780;2023-05-07T15:14:07;25.50;96.70
45115;DHT22;30877;43.706;10.780;2023-05-07T15:16:35;25.30;96.70
45115;DHT22;30877;43.706;10.780;2023-05-07T15:19:04;25.20;96.70
45115;DHT22;30877;43.706;10.780;2023-05-07T15:21:33;25.20;96.70
45115;DHT22;30877;43.706;10.780;2023-05-07T15:24:02;25.10;96.70
45115;DHT22;30877;43.706;10.780;2023-05-07T15:26:30;24.90;96.70
45115;DHT22;30877;43.706;10.780;2023-05-07T15:28:58;24.80;96.70
45115;DHT22;30877;43.706;10.780;2023-05-07T15:31:26;24.80;96.70
45115;DHT22;30877;43.706;10.780;2023-05-07T15:33:54;24.70;96.70
45115;DHT22;30877;43.706;10.780;2023-05-07T15:36:23;24.60;96.70
45115;DHT22;30877;43.706;10.780;2023-05-07T15:38:54;24.60;96.70
45115;DHT22;30877;43.706;10.780;2023-05-07T15:41:22;24.40;96.70
45115;DHT22;30877;43.706;10.780;2023-05-07T15:43:51;24.40;96.70
45115;DHT22;30877;43.706;10.780;2023-05-07T15:46:21;24.30;96.70
45115;DHT22;30877;43.706;10.780;2023-05-07T15:48:51;24.30;96.70
45115;DHT22;30877;43.706;10.780;2023-05-07T15:51:20;24.20;96.70
45115;DHT22;30877;43.706;10.780;2023-05-07T15:53:49;24.20;96.70
45115;DHT22;30877;43.706;10.780;2023-05-07T15:56:20;24.20;96.70
45115;DHT22;30877;43.706;10.780;2023-05-07T15:58:48;24.10;96.70
45115;DHT22;30877;43.706;10.780;2023-05-07T16:01:16;24.00;96.70
45115;DHT22;30877;43.706;10.780;2023-05-07T16:03:44;23.90;96.70
45115;DHT22;30877;43.706;10.780;2023-05-07T16:06:13;23.70;96.70
45115;DHT22;30877;43.706;10.780;2023-05-07T16:08:41;23.70;96.70
45115;DHT22;30877;43.706;10.780;2023-05-07T16:11:10;23.60;96.70
45115;DHT22;30877;43.706;10.780;2023-05-07T16:13:40;23.60;96.70
45115;DHT22;30877;43.706;10.780;2023-05-07T16:16:08;23.50;96.70
45115;DHT22;30877;43.706;10.780;2023-05-07T16:18:36;23.40;96.70
45115;DHT22;30877;43.706;10.780;2023-05-07T16:21:05;23.40;96.70
45115;DHT22;30877;43.706;10.780;2023-05-07T16:23:33;23.40;96.70
45115;DHT22;30877;43.706;10.780;2023-05-07T16:26:02;23.40;96.70
45115;DHT22;30877;43.706;10.780;2023-05-07T16:28:31;23.40;96.70
45115;DHT22;30877;43.706;10.780;2023-05-07T16:31:01;23.40;96.70
45115;DHT22;30877;43.706;10.780;2023-05-07T16:33:29;23.40;96.70
45115;DHT22;30877;43.706;10.780;2023-05-07T16:35:57;23.30;96.70
45115;DHT22;30877;43.706;10.780;2023-05-07T16:38:25;23.30;96.70
45115;DHT22;30877;43.706;10.780;2023-05-07T16:40:55;23.30;96.70
45115;DHT22;30877;43.706;10.780;2023-05-07T16:43:23;23.50;96.70
45115;DHT22;30877;43.706;10.780;2023-05-07T16:45:51;24.00;96.70
45115;DHT22;30877;43.706;10.780;2023-05-07T16:48:21;24.30;96.70
45115;DHT22;30877;43.706;10.780;2023-05-07T16:50:49;24.40;96.70
45115;DHT22;30877;43.706;10.780;2023-05-07T16:53:17;24.50;96.70
45115;DHT22;30877;43.706;10.780;2023-05-07T16:55:46;25.40;96.70
45115;DHT22;30877;43.706;10.780;2023-05-07T16:58:14;26.20;96.70
45115;DHT22;30877;43.706;10.780;2023-05-07T17:00:42;26.40;96.70
45115;DHT22;30877;43.706;10.780;2023-05-07T17:03:17;27.00;96.70
45115;DHT22;30877;43.706;10.780;2023-05-07T17:05:48;28.10;96.70
45115;DHT22;30877;43.706;10.780;2023-05-07T17:08:16;28.60;96.70
45115;DHT22;30877;43.706;10.780;2023-05-07T17:10:45;29.00;96.70
45115;DHT22;30877;43.706;10.780;2023-05-07T17:13:14;30.00;96.70
45115;DHT22;30877;43.706;10.780;2023-05-07T17:15:43;28.60;96.70
45115;DHT22;30877;43.706;10.780;2023-05-07T17:18:13;27.70;96.70
45115;DHT22;30877;43.706;10.780;2023-05-07T17:20:42;26.80;96.70
45115;DHT22;30877;43.706;10.780;2023-05-07T17:23:13;26.20;96.70
45115;DHT22;30877;43.706;10.780;2023-05-07T17:25:42;25.30;96.70
45115;DHT22;30877;43.706;10.780;2023-05-07T17:28:13;24.90;96.70
45115;DHT22;30877;43.706;10.780;2023-05-07T17:30:41;24.80;96.70
45115;DHT22;30877;43.706;10.780;2023-05-07T17:33:10;25.40;96.70
45115;DHT22;30877;43.706;10.780;2023-05-07T17:35:48;25.20;96.70
45115;DHT22;30877;43.706;10.780;2023-05-07T17:38:18;24.70;96.70
45115;DHT22;30877;43.706;10.780;2023-05-07T17:40:47;24.40;96.70
45115;DHT22;30877;43.706;10.780;2023-05-07T17:43:15;24.20;96.70
45115;DHT22;30877;43.706;10.780;2023-05-07T17:45:44;24.10;96.70
45115;DHT22;30877;43.706;10.780;2023-05-07T17:48:14;24.20;96.70
45115;DHT22;30877;43.706;10.780;2023-05-07T17:50:42;24.00;96.70
45115;DHT22;30877;43.706;10.780;2023-05-07T17:53:11;23.90;96.70
45115;DHT22;30877;43.706;10.780;2023-05-07T17:55:44;23.80;96.70
45115;DHT22;30877;43.706;10.780;2023-05-07T17:58:13;23.60;96.70
45115;DHT22;30877;43.706;10.780;2023-05-07T18:00:41;23.40;96.70
45115;DHT22;30877;43.706;10.780;2023-05-07T18:03:10;23.30;96.70
45115;DHT22;30877;43.706;10.780;2023-05-07T18:05:41;23.20;96.70
45115;DHT22;30877;43.706;10.780;2023-05-07T18:08:11;23.10;96.70
45115;DHT22;30877;43.706;10.780;2023-05-07T18:10:39;23.00;96.70
45115;DHT22;30877;43.706;10.780;2023-05-07T18:13:10;22.90;96.70
45115;DHT22;30877;43.706;10.780;2023-05-07T18:15:38;22.80;96.70
45115;DHT22;30877;43.706;10.780;2023-05-07T18:18:08;22.60;96.70
45115;DHT22;30877;43.706;10.780;2023-05-07T18:20:39;22.50;96.70
45115;DHT22;30877;43.706;10.780;2023-05-07T18:23:12;22.50;96.70
45115;DHT22;30877;43.706;10.780;2023-05-07T18:25:40;22.40;96.70
45115;DHT22;30877;43.706;10.780;2023-05-07T18:28:10;22.30;96.70
45115;DHT22;30877;43.706;10.780;2023-05-07T18:30:40;22.10;96.70
45115;DHT22;30877;43.706;10.780;2023-05-07T18:33:08;22.00;96.70
45115;DHT22;30877;43.706;10.780;2023-05-07T18:35:37;22.00;96.70
45115;DHT22;30877;43.706;10.780;2023-05-07T18:38:06;22.00;96.70
45115;DHT22;30877;43.706;10.780;2023-05-07T18:40:35;21.90;96.70
45115;DHT22;30877;43.706;10.780;2023-05-07T18:43:03;21.90;96.70
45115;DHT22;30877;43.706;10.780;2023-05-07T18:45:35;21.90;96.70
45115;DHT22;30877;43.706;10.780;2023-05-07T18:48:05;21.90;96.70
45115;DHT22;30877;43.706;10.780;2023-05-07T18:50:34;22.00;96.70
45115;DHT22;30877;43.706;10.780;2023-05-07T18:53:03;21.90;96.70
45115;DHT22;30877;43.706;10.780;2023-05-07T18:55:31;21.70;96.70
45115;DHT22;30877;43.706;10.780;2023-05-07T18:58:00;21.50;96.70